Time;durP1;ratioP1;P1;durP2;ratioP2;P2;SDS_P1;SDS_P2;PMS_P1;PMS_P2;Temp;Humidity;BMP_temperature;BMP_pressure;BME280_temperature;BME280_humidity;BME280_pressure;Samples;Min_cycle;Max_cycle;Signal;HPM_P1;HPM_P2
2021/06/17 00:01:07;;;;;;;5.22;3.70;;;19.50;58.40;;;19.45;41.88;95069.31;4840748;29;20274;-78
2021/06/17 00:06:10;;;;;;;4.57;3.60;;;19.50;58.50;;;19.40;42.30;95070.03;5150349;27;21135;-79
2021/06/17 00:08:37;;;;;;;5.03;3.75;;;19.40;58.90;;;19.34;42.10;95065.69;5107829;28;20678;-79
2021/06/17 00:11:04;;;;;;;4.30;3.88;;;19.40;59.10;;;19.31;42.37;95066.16;5103735;28;20607;-78
2021/06/17 00:13:36;;;;;;;4.55;3.92;;;19.40;59.10;;;19.25;42.67;95061.81;5079510;27;20312;-79
2021/06/17 00:16:06;;;;;;;6.05;3.72;;;19.30;59.20;;;19.25;42.11;95062.63;5062748;28;20205;-79
2021/06/17 00:18:33;;;;;;;4.88;4.03;;;19.30;59.10;;;19.22;42.33;95062.31;5013809;28;20228;-79
2021/06/17 00:21:04;;;;;;;4.65;4.13;;;19.30;59.30;;;19.19;42.80;95058.28;4932375;28;20219;-78
2021/06/17 00:23:32;;;;;;;5.97;3.75;;;19.20;59.60;;;19.15;42.47;95063.28;4743585;29;20617;-79
2021/06/17 00:26:09;;;;;;;4.75;3.90;;;19.20;59.60;;;19.08;42.90;95059.97;5150320;27;20359;-78
2021/06/17 00:28:36;;;;;;;4.43;3.90;;;19.20;59.60;;;19.02;42.72;95051.09;5114710;28;20229;-79
2021/06/17 00:31:03;;;;;;;5.75;4.03;;;19.10;59.50;;;19.02;42.66;95050.31;5025997;28;20211;-78
2021/06/17 00:33:29;;;;;;;4.63;3.50;;;19.10;59.50;;;18.96;42.54;95043.31;5030901;28;20231;-79
2021/06/17 00:35:56;;;;;;;4.38;3.92;;;19.10;59.70;;;18.94;43.13;95034.75;5021462;28;20212;-79
2021/06/17 00:38:23;;;;;;;4.35;3.95;;;19.00;60.80;;;18.93;43.14;95041.94;5050732;28;20222;-78
2021/06/17 00:40:52;;;;;;;5.50;3.90;;;19.00;60.10;;;18.89;43.19;95040.75;4967247;28;20296;-79
2021/06/17 00:43:19;;;;;;;5.13;4.20;;;19.00;60.00;;;18.90;43.21;95049.56;4872049;29;20371;-78
2021/06/17 00:48:06;;;;;;;4.85;4.03;;;18.90;60.10;;;18.82;43.03;95045.44;5148433;27;20306;-78
2021/06/17 00:50:38;;;;;;;4.13;3.72;;;18.90;60.20;;;18.80;43.70;95045.66;5088080;28;20216;-79
2021/06/17 00:53:10;;;;;;;7.47;4.30;;;18.90;60.70;;;18.78;43.60;95042.44;5089134;28;20563;-78
2021/06/17 00:55:43;;;;;;;4.82;3.92;;;18.90;60.90;;;18.75;44.06;95037.63;5081865;28;20202;-79
2021/06/17 00:58:10;;;;;;;4.30;3.90;;;18.90;61.00;;;18.72;43.44;95040.75;5050503;28;20219;-79
2021/06/17 01:00:39;;;;;;;5.50;4.30;;;18.80;60.60;;;18.68;43.76;95045.72;5031492;28;20679;-78
2021/06/17 01:03:07;;;;;;;4.57;3.90;;;18.80;60.80;;;18.66;44.03;95044.38;4891739;29;20210;-79
2021/06/17 01:05:34;;;;;;;4.85;4.22;;;18.80;60.90;;;18.60;44.10;95032.84;4771753;29;20244;-79
2021/06/17 01:10:08;;;;;;;4.63;3.95;;;18.70;60.80;;;18.49;44.04;95041.66;5130922;27;20590;-79
2021/06/17 01:13:04;;;;;;;6.05;4.50;;;18.70;61.30;;;18.46;44.34;95042.16;5067865;28;20210;-79
2021/06/17 01:15:42;;;;;;;6.65;4.10;;;18.60;61.40;;;18.42;44.62;95044.50;5031424;28;20203;-79
2021/06/17 01:18:14;;;;;;;5.88;4.53;;;18.60;61.60;;;18.36;44.84;95035.63;5040282;28;20215;-78
2021/06/17 01:20:55;;;;;;;5.68;4.50;;;18.60;61.70;;;18.33;45.05;95037.94;4983427;28;20660;-78
2021/06/17 01:24:07;;;;;;;7.13;4.55;;;18.50;62.20;;;18.28;44.69;95040.50;4889840;29;20240;-79
2021/06/17 01:26:55;;;;;;;5.50;4.55;;;18.40;62.00;;;18.21;45.10;95033.50;4725981;29;20289;-79
2021/06/17 01:31:43;;;;;;;7.72;4.65;;;18.40;62.40;;;18.16;45.00;95030.75;5150435;27;20552;-79
2021/06/17 01:34:13;;;;;;;6.20;3.95;;;18.40;61.80;;;18.15;44.94;95036.25;5110530;27;20262;-79
2021/06/17 01:36:48;;;;;;;6.10;4.28;;;18.30;62.20;;;18.13;45.26;95025.09;5101303;28;20245;-78
2021/06/17 01:39:18;;;;;;;4.60;4.20;;;18.20;63.00;;;18.10;45.36;95023.69;5007410;28;20236;-78
2021/06/17 01:41:47;;;;;;;5.13;4.63;;;18.20;62.10;;;18.07;45.37;95022.31;4993391;28;20284;-78
2021/06/17 01:44:21;;;;;;;6.50;4.68;;;18.20;62.10;;;18.04;45.81;95020.16;4954616;28;20227;-79
2021/06/17 01:46:50;;;;;;;5.43;4.85;;;18.20;62.20;;;18.00;45.69;95015.56;4833156;29;20223;-79
2021/06/17 01:49:18;;;;;;;7.25;4.60;;;18.20;62.10;;;17.99;45.51;95019.25;4660245;29;20279;-82
2021/06/17 01:53:55;;;;;;;6.10;4.40;;;18.10;61.90;;;17.89;45.72;95015.34;5141895;27;20653;-79
2021/06/17 01:56:24;;;;;;;5.13;4.45;;;18.00;61.90;;;17.86;46.05;95013.13;5099413;28;20646;-78
2021/06/17 01:58:57;;;;;;;5.78;5.07;;;18.00;62.10;;;17.83;46.10;95008.28;5077109;28;20718;-79
2021/06/17 02:01:30;;;;;;;7.18;5.10;;;18.00;62.80;;;17.81;46.09;95006.91;5046523;28;20218;-78
2021/06/17 02:04:02;;;;;;;6.03;4.95;;;18.00;62.60;;;17.77;46.26;95006.56;4999863;28;20228;-79
2021/06/17 02:06:30;;;;;;;6.97;5.22;;;17.90;63.00;;;17.71;46.50;94997.72;4948429;28;20208;-78
2021/06/17 02:08:58;;;;;;;6.50;5.35;;;17.90;62.60;;;17.70;46.80;95004.06;4849121;29;20321;-79
2021/06/17 02:11:27;;;;;;;7.28;5.63;;;17.90;62.70;;;17.68;46.62;95008.78;4678772;30;20281;-78
2021/06/17 02:16:28;;;;;;;5.93;5.30;;;17.80;62.80;;;17.62;47.04;94995.66;5139414;27;20315;-79
2021/06/17 02:18:58;;;;;;;8.93;6.03;;;17.70;63.30;;;17.57;47.05;94999.00;5079886;28;20222;-78
2021/06/17 02:21:29;;;;;;;7.05;5.72;;;17.70;63.40;;;17.55;47.16;94999.25;5037909;28;20230;-78
2021/06/17 02:23:58;;;;;;;8.32;6.05;;;17.80;63.50;;;17.50;47.29;94996.47;5064363;28;20598;-78
2021/06/17 02:26:26;;;;;;;7.65;6.05;;;17.70;63.50;;;17.48;47.35;94998.56;5060146;28;20571;-78
2021/06/17 02:28:55;;;;;;;8.75;6.05;;;17.70;63.40;;;17.43;47.39;95001.09;5050368;28;20221;-79
2021/06/17 02:31:29;;;;;;;9.13;6.75;;;17.60;63.70;;;17.39;47.72;94999.97;5029384;28;20215;-79
2021/06/17 02:33:56;;;;;;;8.20;6.15;;;17.60;64.20;;;17.38;47.70;95003.66;4914980;28;20324;-79
2021/06/17 02:38:30;;;;;;;7.30;6.38;;;17.50;63.50;;;17.29;47.91;95001.34;5146802;27;20656;-78
2021/06/17 02:41:04;;;;;;;7.07;5.93;;;17.50;64.50;;;17.27;48.13;95003.44;5085867;28;20210;-80
2021/06/17 02:43:34;;;;;;;8.40;6.53;;;17.40;64.10;;;17.23;47.83;94996.16;5054121;28;20284;-78
2021/06/17 02:46:02;;;;;;;10.27;6.97;;;17.50;64.00;;;17.23;48.15;94998.81;5056314;28;20744;-80
2021/06/17 02:48:29;;;;;;;8.95;7.47;;;17.40;64.00;;;17.23;48.26;95006.78;5053636;28;20274;-78
2021/06/17 02:50:56;;;;;;;9.25;7.53;;;17.40;64.20;;;17.22;48.24;95002.50;5001689;28;20242;-81
2021/06/17 02:53:23;;;;;;;9.13;7.25;;;17.40;64.30;;;17.18;48.61;94996.84;4970578;28;20647;-78
2021/06/17 02:55:50;;;;;;;9.70;7.65;;;17.30;64.40;;;17.19;48.76;95001.13;4878990;29;20205;-79
2021/06/17 03:01:11;;;;;;;11.63;8.13;;;17.30;64.60;;;17.15;48.68;95000.00;5149885;27;20374;-77
2021/06/17 03:03:46;;;;;;;9.00;7.60;;;17.30;65.50;;;17.16;49.10;94995.47;5072848;28;20232;-79
2021/06/17 03:06:18;;;;;;;10.48;8.38;;;17.30;65.50;;;17.16;48.87;95000.78;5086564;28;20694;-78
2021/06/17 03:08:59;;;;;;;10.13;8.20;;;17.30;64.80;;;17.14;49.05;94998.38;5059672;28;20489;-77
2021/06/17 03:11:33;;;;;;;10.85;7.47;;;17.30;65.50;;;17.15;49.31;95000.00;5040833;28;20205;-78
2021/06/17 03:14:09;;;;;;;10.32;8.00;;;17.30;65.80;;;17.13;49.87;95002.84;4999792;28;20229;-78
2021/06/17 03:16:37;;;;;;;9.73;8.25;;;17.20;65.90;;;17.14;49.37;94995.72;4770646;29;20214;-77
2021/06/17 03:22:04;;;;;;;9.93;8.60;;;17.20;65.20;;;17.17;49.58;95000.53;5150300;27;21122;-77
2021/06/17 03:24:34;;;;;;;10.00;9.00;;;17.20;65.90;;;17.18;49.84;94990.75;5092509;28;20679;-79
2021/06/17 03:27:02;;;;;;;12.23;8.88;;;17.20;65.80;;;17.21;49.75;94995.59;5072149;28;20195;-77
2021/06/17 03:29:34;;;;;;;11.20;8.95;;;17.20;65.70;;;17.24;50.22;95001.22;5048887;28;20247;-78
2021/06/17 03:32:03;;;;;;;9.90;8.40;;;17.30;66.40;;;17.26;49.93;94999.16;4999369;28;20299;-78
2021/06/17 03:34:31;;;;;;;13.00;9.50;;;17.30;66.10;;;17.32;50.02;94997.44;4914442;29;20286;-78
2021/06/17 03:37:00;;;;;;;10.93;9.40;;;17.30;66.20;;;17.35;50.71;94994.31;4911624;28;20221;-79
2021/06/17 03:39:30;;;;;;;12.43;10.65;;;17.30;66.40;;;17.44;50.55;95000.06;4819158;29;20237;-79
2021/06/17 03:44:27;;;;;;;15.27;10.80;;;17.40;66.70;;;17.59;51.27;95000.41;5134723;27;20349;-79
2021/06/17 03:46:56;;;;;;;11.63;10.30;;;17.50;67.10;;;17.69;50.98;95001.66;5080910;28;20203;-79
2021/06/17 03:49:24;;;;;;;12.50;10.23;;;17.50;67.20;;;17.77;51.32;95002.09;5064163;28;20267;-78
2021/06/17 03:51:53;;;;;;;16.90;10.32;;;17.60;67.30;;;17.86;51.20;95005.19;5040956;28;20216;-79
2021/06/17 03:54:24;;;;;;;11.20;10.00;;;17.70;67.50;;;17.92;51.08;95006.88;4980714;28;20732;-79
2021/06/17 03:57:01;;;;;;;13.27;10.88;;;17.70;67.30;;;18.01;51.58;95007.34;4955142;28;20710;-79
2021/06/17 03:59:37;;;;;;;12.18;10.70;;;17.80;67.80;;;18.10;51.30;95001.66;4827933;29;20248;-79
2021/06/17 04:05:02;;;;;;;15.68;11.32;;;18.00;67.60;;;18.23;51.63;94998.72;5132387;27;20656;-80
2021/06/17 04:07:32;;;;;;;12.77;10.27;;;18.00;67.40;;;18.32;51.47;94992.00;5095962;28;20648;-79
2021/06/17 04:10:00;;;;;;;13.80;10.07;;;18.10;67.60;;;18.42;51.38;95001.19;5069327;28;20229;-80
2021/06/17 04:12:29;;;;;;;14.43;10.27;;;18.30;67.70;;;18.49;51.36;94997.34;5056012;28;20206;-80
2021/06/17 04:14:59;;;;;;;12.35;9.82;;;18.20;67.80;;;18.58;51.37;94988.97;5040571;28;20584;-79
2021/06/17 04:17:32;;;;;;;12.82;10.70;;;18.30;67.60;;;18.66;51.85;94992.06;5011785;28;20221;-80
2021/06/17 04:20:00;;;;;;;15.75;11.32;;;18.40;68.10;;;18.72;51.29;94992.91;4961156;28;20242;-80
2021/06/17 04:22:28;;;;;;;12.05;10.15;;;18.50;67.70;;;18.81;51.31;94994.13;4785075;29;20300;-80
2021/06/17 04:25:06;;;;;;;12.57;9.93;;;18.50;67.70;;;18.90;51.45;94996.41;5132453;27;20331;-80
2021/06/17 04:27:34;;;;;;;12.45;10.20;;;18.60;67.80;;;18.98;51.64;94999.50;5101123;28;20205;-80
2021/06/17 04:30:03;;;;;;;12.38;10.15;;;18.70;67.90;;;19.05;51.21;94988.69;5074749;28;20777;-80
2021/06/17 04:32:30;;;;;;;11.13;9.93;;;18.70;67.60;;;19.14;50.97;94992.53;5013258;28;20304;-80
2021/06/17 04:34:59;;;;;;;13.82;10.05;;;18.80;67.60;;;19.20;51.30;94988.91;5010508;28;20289;-81
2021/06/17 04:37:27;;;;;;;12.65;10.55;;;18.90;67.70;;;19.27;51.43;94986.06;5004414;28;20216;-80
2021/06/17 04:39:57;;;;;;;13.18;10.45;;;19.00;67.60;;;19.35;51.52;94985.66;4932779;28;20243;-79
2021/06/17 04:42:25;;;;;;;11.95;10.63;;;19.10;67.70;;;19.41;51.23;94991.03;4812325;29;20220;-79
2021/06/17 04:44:59;;;;;;;11.77;10.25;;;19.10;67.50;;;19.49;50.75;94993.28;5132815;27;20808;-80
2021/06/17 04:47:26;;;;;;;12.00;10.18;;;19.30;67.70;;;19.55;51.22;94986.97;5083747;28;20193;-80
2021/06/17 04:49:52;;;;;;;13.70;10.75;;;19.30;67.60;;;19.61;51.24;94988.63;5069646;28;20326;-80
2021/06/17 04:52:39;;;;;;;13.02;10.02;;;19.30;67.60;;;19.67;50.82;94992.97;5073383;28;20215;-80
2021/06/17 04:55:07;;;;;;;13.68;11.00;;;19.40;67.60;;;19.74;50.93;94997.31;5001588;28;20245;-80
2021/06/17 04:57:34;;;;;;;12.73;10.57;;;19.50;67.70;;;19.79;51.12;94995.53;4941512;28;20208;-80
2021/06/17 05:00:01;;;;;;;11.15;10.00;;;19.50;67.50;;;19.86;50.81;94998.03;4889990;29;20255;-79
2021/06/17 05:02:28;;;;;;;13.45;9.90;;;19.50;67.50;;;19.93;50.79;94993.34;4664041;29;20606;-81
2021/06/17 05:05:08;;;;;;;12.57;10.38;;;19.60;67.60;;;19.98;51.35;94992.56;5131912;27;20319;-80
2021/06/17 05:12:53;;;;;;;10.70;9.60;;;19.80;67.70;;;20.18;50.62;94992.00;5069314;28;20221;-80
2021/06/17 05:15:19;;;;;;;11.65;9.88;;;19.90;67.60;;;20.26;51.09;94990.72;5030209;28;20228;-81
2021/06/17 05:17:46;;;;;;;13.00;10.43;;;19.90;67.60;;;20.29;50.74;94984.91;4991110;28;20198;-79
2021/06/17 05:20:15;;;;;;;12.48;10.57;;;20.00;67.60;;;20.37;50.78;94987.09;4914512;28;22967;-80
2021/06/17 05:22:44;;;;;;;14.40;10.10;;;20.00;68.40;;;20.43;50.86;94986.13;4633117;30;20232;-80
2021/06/17 05:27:01;;;;;;;11.55;9.25;;;20.10;67.60;;;20.52;50.71;94978.47;5147423;27;20672;-81
2021/06/17 05:29:29;;;;;;;11.23;9.35;;;20.20;67.50;;;20.60;50.84;94977.22;5108003;28;20678;-80
2021/06/17 05:31:56;;;;;;;10.88;9.73;;;20.30;67.70;;;20.71;50.63;94983.44;5081568;28;20207;-80
2021/06/17 05:34:23;;;;;;;12.45;10.00;;;20.30;67.60;;;20.78;50.88;94978.72;5061906;28;20227;-80
2021/06/17 05:36:50;;;;;;;9.80;8.80;;;20.40;67.70;;;20.85;51.12;94973.97;5054697;28;20690;-80
2021/06/17 05:39:16;;;;;;;10.38;9.32;;;20.50;67.90;;;20.95;50.65;94984.72;4949577;28;20225;-81
2021/06/17 05:41:43;;;;;;;10.85;9.70;;;20.60;68.00;;;21.05;50.51;94983.97;4863842;29;20240;-82
2021/06/17 05:44:10;;;;;;;11.75;9.43;;;20.60;67.80;;;21.13;51.12;94977.38;4855655;29;25078;-80
2021/06/17 05:48:57;;;;;;;10.02;8.32;;;20.70;67.80;;;21.28;50.21;94980.13;5139698;27;20337;-80
2021/06/17 05:51:23;;;;;;;9.65;8.65;;;20.90;67.60;;;21.38;50.20;94990.06;5081922;28;20513;-81
2021/06/17 05:53:50;;;;;;;11.02;8.95;;;20.90;67.40;;;21.46;50.59;94987.97;5049516;28;20296;-81
2021/06/17 05:56:18;;;;;;;10.68;7.90;;;21.00;67.60;;;21.52;50.30;94989.59;5040902;28;20669;-80
2021/06/17 05:58:47;;;;;;;9.80;8.88;;;21.10;67.50;;;21.57;50.59;94989.66;4988090;28;20313;-81
2021/06/17 06:01:13;;;;;;;9.93;8.93;;;21.10;67.40;;;21.62;50.37;94984.34;4874722;29;20265;-80
2021/06/17 06:03:40;;;;;;;9.48;7.72;;;21.20;67.50;;;21.71;50.41;94981.97;4852221;29;20250;-81
2021/06/17 06:06:07;;;;;;;9.07;8.18;;;21.30;67.50;;;21.83;50.22;94992.44;4757524;29;20234;-81
2021/06/17 06:10:24;;;;;;;9.32;8.45;;;21.30;67.50;;;21.96;50.28;94994.63;5148792;27;20554;-81
2021/06/17 06:12:51;;;;;;;10.05;8.32;;;21.50;67.50;;;22.07;50.05;94990.13;5092960;27;20192;-81
2021/06/17 06:15:17;;;;;;;9.00;8.00;;;21.70;67.50;;;22.17;50.12;95005.41;5127801;27;20292;-82
2021/06/17 06:17:44;;;;;;;10.60;8.13;;;21.70;67.30;;;22.24;50.02;94987.25;5102513;28;20205;-83
2021/06/17 06:20:12;;;;;;;9.48;7.95;;;21.80;67.30;;;22.35;50.18;95002.22;5056887;28;20306;-82
2021/06/17 06:22:39;;;;;;;8.45;6.65;;;21.80;67.30;;;22.46;49.90;95000.41;4978067;28;20219;-81
2021/06/17 06:25:06;;;;;;;7.15;6.45;;;21.90;67.30;;;22.59;50.02;95000.97;4859574;29;20659;-81
2021/06/17 06:27:34;;;;;;;9.50;7.25;;;22.00;67.30;;;22.72;49.63;95003.13;4692097;30;20248;-81
2021/06/17 06:32:19;;;;;;;6.78;6.18;;;22.10;67.00;;;22.92;49.29;94999.63;5148822;27;20768;-82
2021/06/17 06:34:46;;;;;;;8.07;6.07;;;22.30;66.80;;;23.09;49.05;95014.63;5111403;27;20669;-81
2021/06/17 06:37:13;;;;;;;7.28;6.13;;;22.50;66.80;;;23.20;48.87;95005.53;5113024;27;20204;-81
2021/06/17 06:39:39;;;;;;;8.13;6.18;;;22.50;66.40;;;23.34;48.78;95016.50;5107996;28;20232;-81
2021/06/17 06:42:07;;;;;;;6.35;5.72;;;22.70;66.40;;;23.46;48.42;95014.34;5062709;28;20292;-81
2021/06/17 06:44:33;;;;;;;6.47;5.78;;;22.80;66.30;;;23.58;48.43;95021.25;4955893;28;20297;-80
2021/06/17 06:47:00;;;;;;;8.55;5.82;;;22.90;66.10;;;23.69;48.20;95016.69;4801333;29;20217;-81
2021/06/17 06:49:27;;;;;;;6.30;5.47;;;23.00;65.90;;;23.79;47.74;95012.09;4626035;30;20248;-81
2021/06/17 06:53:58;;;;;;;6.13;5.53;;;23.10;65.90;;;23.98;47.61;95016.88;5132874;27;20659;-82
2021/06/17 06:56:24;;;;;;;7.85;5.38;;;23.30;66.10;;;24.10;47.96;95016.56;5068562;28;20564;-82
2021/06/17 06:58:53;;;;;;;5.45;4.95;;;23.40;66.10;;;24.21;47.31;95020.78;5036381;28;20619;-81
2021/06/17 07:01:20;;;;;;;6.88;5.15;;;23.50;65.80;;;24.33;47.01;95020.47;5022372;28;20658;-82
2021/06/17 07:03:47;;;;;;;9.10;5.18;;;23.60;65.50;;;24.47;46.70;95026.00;4933049;28;20236;-84
2021/06/17 07:06:13;;;;;;;6.00;4.80;;;23.70;65.50;;;24.56;46.39;95018.19;4831585;29;20578;-80
2021/06/17 07:08:40;;;;;;;5.53;4.75;;;23.80;65.00;;;24.69;46.22;95022.94;4769687;29;20238;-82
2021/06/17 07:11:07;;;;;;;4.93;4.47;;;23.90;64.80;;;24.79;46.25;95032.81;4638294;30;20244;-81
2021/06/17 07:16:30;;;;;;;7.72;5.38;;;24.10;64.70;;;25.00;45.76;95029.97;5147665;27;20572;-82
2021/06/17 07:18:57;;;;;;;8.70;5.40;;;24.30;64.60;;;25.09;45.74;95031.00;5101833;27;20205;-81
2021/06/17 07:21:24;;;;;;;5.65;4.70;;;24.40;64.70;;;25.16;45.69;95030.66;5095968;28;20588;-81
2021/06/17 07:23:51;;;;;;;5.30;4.80;;;24.50;64.60;;;25.28;45.69;95030.28;5062645;28;20257;-82
2021/06/17 07:26:26;;;;;;;5.32;4.80;;;24.50;64.40;;;25.36;44.93;95027.78;4995470;28;20271;-81
2021/06/17 07:28:53;;;;;;;5.80;5.20;;;24.70;64.30;;;25.49;45.51;95029.06;4913758;29;20638;-82
2021/06/17 07:31:19;;;;;;;5.35;4.85;;;24.70;64.30;;;25.58;45.10;95026.53;4880426;29;20226;-83
2021/06/17 07:33:47;;;;;;;5.82;4.93;;;24.90;64.20;;;25.68;45.01;95021.06;4798175;29;20250;-82
2021/06/17 07:38:12;;;;;;;5.53;4.20;;;24.90;64.00;;;25.86;44.48;95021.41;5147170;27;20515;-82
2021/06/17 07:40:42;;;;;;;4.50;4.10;;;25.10;63.50;;;25.97;44.35;95027.47;5123267;28;20203;-82
2021/06/17 07:43:10;;;;;;;5.28;3.95;;;25.20;63.20;;;26.09;43.60;95024.41;5104171;28;20209;-82
2021/06/17 07:45:37;;;;;;;3.85;3.50;;;25.30;62.60;;;26.18;43.51;95025.34;5045658;28;20212;-82
2021/06/17 07:48:10;;;;;;;3.83;3.45;;;25.40;63.30;;;26.29;43.14;95023.34;5021946;28;20691;-82
2021/06/17 07:50:41;;;;;;;4.20;3.80;;;25.50;62.50;;;26.37;42.92;95022.69;4962979;28;20579;-81
2021/06/17 07:53:08;;;;;;;4.03;3.63;;;25.60;62.20;;;26.45;42.63;95019.38;4898647;28;20221;-82
2021/06/17 07:55:36;;;;;;;4.00;3.35;;;25.70;62.00;;;26.53;42.40;95020.59;4759016;29;20254;-82
2021/06/17 07:58:15;;;;;;;4.20;3.75;;;25.80;61.90;;;26.60;42.03;95022.91;5147536;27;20528;-82
2021/06/17 08:00:42;;;;;;;4.72;3.53;;;25.90;61.60;;;26.68;41.75;95036.53;5091770;28;20208;-82
2021/06/17 08:03:09;;;;;;;4.20;3.80;;;25.90;61.40;;;26.72;41.88;95023.28;5085799;28;20205;-82
2021/06/17 08:05:37;;;;;;;3.70;3.22;;;26.00;61.30;;;26.81;42.09;95032.31;5077544;28;20215;-81
2021/06/17 08:08:04;;;;;;;7.55;3.67;;;26.10;61.70;;;26.89;42.03;95033.56;5008026;28;20209;-81
2021/06/17 08:10:32;;;;;;;4.05;3.60;;;26.10;61.30;;;26.97;41.87;95040.94;4974194;28;20209;-81
2021/06/17 08:12:58;;;;;;;4.40;3.78;;;26.20;61.30;;;27.03;41.79;95027.44;4875496;29;20210;-81
2021/06/17 08:15:25;;;;;;;7.28;4.40;;;26.30;61.00;;;27.08;41.64;95044.28;4667208;29;20231;-81
2021/06/17 08:20:49;;;;;;;4.93;3.85;;;26.40;61.20;;;27.16;41.51;95048.22;5150349;27;20954;-82
2021/06/17 08:23:19;;;;;;;5.38;3.97;;;26.50;60.90;;;27.22;40.73;95051.59;5109514;27;20670;-82
2021/06/17 08:25:45;;;;;;;4.43;3.83;;;26.50;60.30;;;27.25;40.54;95048.34;5097002;27;20248;-82
2021/06/17 08:28:12;;;;;;;4.20;3.80;;;26.60;60.10;;;27.29;40.73;95052.03;5097072;28;20214;-82
2021/06/17 08:30:39;;;;;;;4.22;3.78;;;26.60;60.30;;;27.33;40.47;95053.84;5071994;28;20222;-81
2021/06/17 08:33:06;;;;;;;3.85;3.55;;;26.60;60.40;;;27.36;40.87;95057.06;4964006;28;20673;-82
2021/06/17 08:35:32;;;;;;;4.63;4.00;;;26.70;60.30;;;27.40;40.14;95050.75;4863384;29;20213;-81
2021/06/17 08:37:59;;;;;;;4.50;4.10;;;26.70;60.80;;;27.43;40.55;95055.59;4763547;29;20252;-82
2021/06/17 08:43:02;;;;;;;5.35;4.82;;;26.70;60.10;;;27.49;40.02;95050.94;5141640;27;20588;-82
2021/06/17 08:45:29;;;;;;;8.70;4.00;;;26.80;59.80;;;27.55;40.41;95052.44;5085814;28;20207;-82
2021/06/17 08:47:59;;;;;;;5.10;4.60;;;26.80;60.00;;;27.58;40.29;95051.81;5040726;28;20292;-82
2021/06/17 08:50:26;;;;;;;5.45;4.00;;;26.90;60.00;;;27.64;40.66;95049.84;4990277;28;20207;-81
2021/06/17 08:52:53;;;;;;;5.13;4.15;;;26.90;60.00;;;27.67;40.83;95048.44;4979254;28;20235;-81
2021/06/17 08:55:24;;;;;;;4.20;3.78;;;27.00;60.20;;;27.76;40.50;95052.06;4948432;28;20265;-82
2021/06/17 08:57:53;;;;;;;5.00;4.35;;;27.00;60.00;;;27.77;40.52;95048.25;4907845;28;20676;-82
2021/06/17 09:00:23;;;;;;;4.93;3.72;;;27.10;59.90;;;27.84;40.52;95047.88;4790597;29;20580;-84
2021/06/17 09:04:41;;;;;;;5.53;3.97;;;27.10;60.00;;;27.88;40.29;95052.38;5131714;27;20549;-82
2021/06/17 09:07:13;;;;;;;5.32;4.22;;;27.20;59.80;;;27.95;40.63;95057.34;5084566;28;20669;-82
2021/06/17 09:09:44;;;;;;;4.10;3.70;;;27.30;59.40;;;28.01;40.02;95050.75;5076128;28;20233;-82
2021/06/17 09:12:16;;;;;;;5.10;3.80;;;27.30;59.80;;;28.08;39.89;95055.81;5010928;28;20573;-81
2021/06/17 09:15:03;;;;;;;3.90;3.50;;;27.40;59.20;;;28.15;40.32;95058.09;4948816;28;20231;-82
2021/06/17 09:17:29;;;;;;;8.05;4.18;;;27.40;59.50;;;28.21;39.59;95063.09;4935757;28;20633;-82
2021/06/17 09:19:56;;;;;;;6.07;4.35;;;27.50;58.90;;;28.28;39.30;95055.38;4771452;29;20240;-82
2021/06/17 09:22:25;;;;;;;5.75;3.78;;;27.50;58.70;;;28.36;38.77;95056.56;4457660;30;20225;-82
2021/06/17 09:27:30;;;;;;;5.22;3.60;;;27.60;58.40;;;28.46;38.83;95033.19;5150380;27;21141;-82
2021/06/17 09:30:12;;;;;;;3.85;3.50;;;27.80;58.50;;;28.57;38.55;95038.03;5071505;28;20268;-81
2021/06/17 09:32:52;;;;;;;5.65;3.45;;;27.80;57.90;;;28.66;38.47;95056.22;5062377;28;20688;-82
2021/06/17 09:35:28;;;;;;;3.83;3.50;;;27.90;57.70;;;28.74;37.38;95048.22;5044676;28;20230;-82
2021/06/17 09:38:05;;;;;;;4.32;2.90;;;28.00;56.70;;;28.84;37.86;95047.19;4987288;28;20210;-81
2021/06/17 09:40:35;;;;;;;3.30;3.00;;;28.00;56.90;;;28.91;37.58;95047.56;4895414;29;20250;-82
2021/06/17 09:43:34;;;;;;;3.28;3.00;;;28.00;56.40;;;29.04;37.71;95045.13;4811284;29;21537;-81
2021/06/17 09:48:46;;;;;;;4.00;3.10;;;28.20;57.10;;;29.26;37.14;95032.72;5144196;27;20516;-81
2021/06/17 09:51:44;;;;;;;4.32;3.03;;;28.40;56.30;;;29.34;37.24;95046.31;5085417;28;20234;-81
2021/06/17 09:54:20;;;;;;;3.25;2.95;;;28.50;56.30;;;29.44;36.65;95044.47;5063093;28;20256;-81
2021/06/17 09:56:59;;;;;;;4.57;3.38;;;28.60;55.80;;;29.49;36.45;95042.44;5030911;28;20275;-82
2021/06/17 09:59:47;;;;;;;6.15;3.15;;;28.70;55.20;;;29.54;35.99;95045.00;4953873;28;20304;-82
2021/06/17 10:02:23;;;;;;;3.70;3.00;;;28.70;55.00;;;29.61;36.38;95047.25;4933825;28;20230;-81
2021/06/17 10:04:52;;;;;;;3.60;3.00;;;28.80;54.70;;;29.67;35.54;95054.09;4790407;29;20250;-82
2021/06/17 10:09:17;;;;;;;3.88;3.20;;;28.90;54.70;;;29.77;36.67;95044.97;5139570;27;20640;-82
2021/06/17 10:11:44;;;;;;;4.05;3.03;;;29.00;56.50;;;29.84;36.29;95037.16;5082885;28;20309;-82
2021/06/17 10:14:13;;;;;;;5.60;3.30;;;29.00;54.70;;;29.92;35.50;95045.66;5067218;28;20250;-82
2021/06/17 10:16:42;;;;;;;4.38;3.20;;;29.10;54.60;;;29.97;35.80;95043.63;5048373;28;20202;-81
2021/06/17 10:19:13;;;;;;;6.95;3.30;;;29.10;54.00;;;30.00;35.15;95051.13;5014012;28;20221;-81
2021/06/17 10:21:41;;;;;;;3.50;3.10;;;29.20;54.20;;;30.08;35.56;95043.31;4970813;28;20268;-82
2021/06/17 10:24:24;;;;;;;4.78;3.28;;;29.20;54.30;;;30.13;35.14;95045.91;4874650;29;20295;-81
2021/06/17 10:26:58;;;;;;;5.88;3.22;;;29.30;54.10;;;30.18;35.09;95040.34;4727413;29;20283;-81
2021/06/17 10:31:39;;;;;;;3.95;3.33;;;29.30;53.30;;;30.23;34.86;95050.22;5145635;27;20581;-81
2021/06/17 10:34:30;;;;;;;5.47;2.92;;;29.50;53.60;;;30.27;35.15;95046.59;5101664;28;20727;-81
2021/06/17 10:37:30;;;;;;;5.18;3.55;;;29.50;54.00;;;30.30;35.10;95035.13;5084925;28;20215;-80
2021/06/17 10:40:08;;;;;;;4.05;3.20;;;29.60;53.90;;;30.38;35.10;95032.75;4992472;28;20701;-81
2021/06/17 10:42:41;;;;;;;7.88;3.58;;;29.60;53.70;;;30.42;34.58;95029.09;4889111;29;20375;-82
2021/06/17 10:45:13;;;;;;;3.97;3.50;;;29.60;53.50;;;30.50;34.92;95022.94;4762790;29;20245;-81
2021/06/17 10:47:47;;;;;;;4.00;3.33;;;29.70;53.40;;;30.60;34.69;95034.56;4586748;30;20331;-81
2021/06/17 10:53:16;;;;;;;4.25;3.25;;;29.70;53.40;;;30.65;34.22;95015.44;5148785;27;20554;-82
2021/06/17 10:56:16;;;;;;;4.57;3.70;;;29.80;52.60;;;30.72;34.62;95020.41;5085576;28;20261;-81
2021/06/17 10:58:45;;;;;;;5.65;3.30;;;29.90;53.20;;;30.77;34.40;95017.53;5035899;28;20464;-79
2021/06/17 11:01:29;;;;;;;4.65;3.40;;;30.00;52.50;;;30.80;33.73;95017.69;5040553;28;20577;-81
2021/06/17 11:04:13;;;;;;;4.78;3.67;;;30.00;52.10;;;30.84;34.02;95012.44;4986427;28;20218;-82
2021/06/17 11:07:03;;;;;;;5.40;3.50;;;30.00;52.20;;;30.88;34.45;95018.78;4920533;29;20202;-81
2021/06/17 11:09:49;;;;;;;4.95;3.40;;;30.10;52.70;;;30.94;33.88;95020.22;4779068;29;20272;-83
2021/06/17 11:14:03;;;;;;;3.90;3.22;;;30.10;52.20;;;31.03;34.52;95022.13;5140778;27;20567;-82
2021/06/17 11:16:31;;;;;;;4.82;3.35;;;30.20;52.70;;;31.12;33.97;95017.53;5082704;28;20950;-81
2021/06/17 11:19:01;;;;;;;4.50;3.28;;;30.30;52.50;;;31.21;34.24;95015.59;5054233;28;20230;-81
2021/06/17 11:21:31;;;;;;;7.22;3.42;;;30.30;52.10;;;31.29;33.27;95019.44;5059254;28;20232;-81
2021/06/17 11:24:07;;;;;;;5.25;3.38;;;30.40;51.70;;;31.33;32.65;95019.56;5015483;28;20218;-81
2021/06/17 11:26:36;;;;;;;3.42;2.90;;;30.50;50.80;;;31.36;33.19;95006.19;4974081;28;20212;-81
2021/06/17 11:29:53;;;;;;;3.33;2.90;;;30.50;50.90;;;31.35;32.85;94998.34;4759319;29;20246;-81
2021/06/17 11:34:57;;;;;;;5.75;3.00;;;30.60;51.50;;;31.41;32.85;95002.50;5119370;27;20570;-81
2021/06/17 11:37:30;;;;;;;4.95;3.28;;;30.70;50.50;;;31.37;32.71;95001.53;5033273;28;20271;-81
2021/06/17 11:39:56;;;;;;;5.18;2.92;;;30.60;50.10;;;31.43;32.25;95000.25;5043756;28;20228;-81
2021/06/17 11:42:23;;;;;;;3.97;3.35;;;30.70;50.00;;;31.46;32.17;94989.56;5039274;28;20224;-80
2021/06/17 11:44:59;;;;;;;3.95;3.45;;;30.70;50.00;;;31.52;31.97;94998.31;5085624;28;20248;-81